Time;durP1;ratioP1;P1;durP2;ratioP2;P2;SDS_P1;SDS_P2;PMS_P1;PMS_P2;Temp;Humidity;BMP_temperature;BMP_pressure;BME280_temperature;BME280_humidity;BME280_pressure;Samples;Min_cycle;Max_cycle;Signal;HPM_P1;HPM_P2
2023/02/09 00:01:10;;;;;;;30.43;8.60;;;;;;;-1.33;79.80;103095.34;5034506;28;20891;-66
2023/02/09 00:03:38;;;;;;;17.70;6.57;;;;;;;-1.35;79.88;103093.81;5034360;28;20463;-65
2023/02/09 00:06:06;;;;;;;21.20;8.67;;;;;;;-1.38;80.26;103081.66;5034396;28;20803;-66
2023/02/09 00:08:35;;;;;;;31.67;9.13;;;;;;;-1.41;78.59;103066.06;5033971;28;20509;-65
2023/02/09 00:11:05;;;;;;;15.23;6.97;;;;;;;-1.45;78.11;103078.00;5034121;28;20447;-66
2023/02/09 00:13:31;;;;;;;21.77;8.47;;;;;;;-1.56;79.23;103065.81;5034355;28;20440;-65
2023/02/09 00:16:00;;;;;;;18.67;7.60;;;;;;;-1.49;80.09;103076.66;5034069;28;20485;-66
2023/02/09 00:18:28;;;;;;;23.97;9.30;;;;;;;-1.50;80.95;103069.69;5033107;28;20578;-67
2023/02/09 00:20:55;;;;;;;21.27;8.47;;;;;;;-1.45;81.19;103074.50;5034067;28;20443;-65
2023/02/09 00:23:22;;;;;;;23.63;8.43;;;;;;;-1.43;80.21;103080.50;5034034;28;20439;-65
2023/02/09 00:25:49;;;;;;;16.77;7.60;;;;;;;-1.50;79.70;103069.69;5033966;28;20471;-65
2023/02/09 00:28:15;;;;;;;25.00;8.17;;;;;;;-1.51;79.48;103065.31;5033837;28;20439;-65
2023/02/09 00:30:42;;;;;;;18.97;6.90;;;;;;;-1.52;79.63;103064.50;5033880;28;20450;-65
2023/02/09 00:33:10;;;;;;;21.70;8.47;;;;;;;-1.55;79.77;103063.97;5033527;28;20450;-65
2023/02/09 00:35:40;;;;;;;20.40;7.03;;;;;;;-1.56;79.21;103054.34;5033740;28;20447;-63
2023/02/09 00:38:07;;;;;;;29.27;8.60;;;;;;;-1.65;79.77;103057.97;5033786;28;20447;-66
2023/02/09 00:40:33;;;;;;;24.63;9.10;;;;;;;-1.65;79.74;103058.78;5033453;28;20443;-65
2023/02/09 00:43:00;;;;;;;17.60;7.57;;;;;;;-1.64;79.65;103055.16;5033393;28;20466;-65
2023/02/09 00:45:26;;;;;;;21.83;8.10;;;;;;;-1.62;79.90;103053.16;5033635;28;20834;-66
2023/02/09 00:47:53;;;;;;;22.20;8.70;;;;;;;-1.63;80.23;103048.03;5033629;28;20442;-65
2023/02/09 00:50:21;;;;;;;19.30;8.63;;;;;;;-1.63;80.67;103045.38;5033454;28;20553;-65
2023/02/09 00:52:47;;;;;;;18.03;7.17;;;;;;;-1.62;80.05;103047.03;5033462;28;20439;-65
2023/02/09 00:55:14;;;;;;;23.10;9.20;;;;;;;-1.63;80.46;103042.72;5033509;28;20439;-65
2023/02/09 00:57:40;;;;;;;18.97;8.37;;;;;;;-1.66;79.65;103037.72;5033366;28;20483;-66
2023/02/09 01:00:13;;;;;;;19.10;7.77;;;;;;;-1.72;79.80;103033.88;5033352;28;20459;-65
2023/02/09 01:02:39;;;;;;;18.30;7.57;;;;;;;-1.71;80.01;103042.66;5033401;28;20459;-65
2023/02/09 01:05:07;;;;;;;18.10;8.50;;;;;;;-1.73;79.44;103037.50;5033447;28;20482;-65
2023/02/09 01:07:35;;;;;;;20.10;7.03;;;;;;;-1.76;79.41;103035.19;5033294;28;20549;-65
2023/02/09 01:10:02;;;;;;;20.40;7.23;;;;;;;-1.79;80.26;103031.00;5033116;28;20474;-65
2023/02/09 01:12:29;;;;;;;19.97;8.60;;;;;;;-1.79;80.32;103028.34;5033137;28;20443;-67
2023/02/09 01:14:56;;;;;;;18.40;7.33;;;;;;;-1.82;81.82;103028.66;5033245;28;20450;-65
2023/02/09 01:17:23;;;;;;;20.07;7.67;;;;;;;-1.79;82.12;103036.31;5032790;28;21000;-66
2023/02/09 01:19:52;;;;;;;24.53;8.10;;;;;;;-1.79;82.26;103036.31;5033082;28;20550;-65
2023/02/09 01:22:18;;;;;;;21.20;8.27;;;;;;;-1.78;82.47;103031.81;5034421;28;20442;-65
2023/02/09 01:24:46;;;;;;;20.83;7.13;;;;;;;-1.71;81.93;103034.69;5033146;28;20437;-65
2023/02/09 01:27:13;;;;;;;20.20;7.30;;;;;;;-1.74;81.42;103033.19;5033113;28;20518;-65
2023/02/09 01:29:40;;;;;;;23.50;9.13;;;;;;;-1.78;81.82;103032.66;5033735;28;20470;-65
2023/02/09 01:32:07;;;;;;;26.80;8.67;;;;;;;-1.79;81.65;103025.69;5037223;28;20449;-67
2023/02/09 01:34:33;;;;;;;23.13;8.77;;;;;;;-1.84;82.40;103022.69;5037198;28;20469;-67
2023/02/09 01:37:00;;;;;;;16.23;6.73;;;;;;;-1.78;81.93;103014.06;5037066;28;20537;-67
2023/02/09 01:39:27;;;;;;;22.60;9.07;;;;;;;-1.84;81.79;103005.91;5036657;28;20971;-68
2023/02/09 01:41:55;;;;;;;16.80;6.57;;;;;;;-1.81;81.51;103001.13;5037012;28;20445;-67
2023/02/09 01:44:58;;;;;;;19.37;9.10;;;;;;;-1.87;80.50;102990.28;5036999;28;20439;-66
2023/02/09 01:47:25;;;;;;;19.70;7.73;;;;;;;-1.91;80.13;102987.09;5036964;28;20445;-68
2023/02/09 01:49:51;;;;;;;19.53;7.97;;;;;;;-1.99;79.09;102989.75;5036906;28;20463;-65
2023/02/09 01:52:21;;;;;;;21.23;8.50;;;;;;;-2.05;79.77;102979.75;5036781;28;20527;-66
2023/02/09 01:54:51;;;;;;;20.37;8.73;;;;;;;-2.05;79.95;102982.41;5036456;28;20443;-66
2023/02/09 01:57:24;;;;;;;24.83;9.10;;;;;;;-2.11;79.66;102978.56;5036633;28;21029;-65
2023/02/09 01:59:54;;;;;;;17.90;7.10;;;;;;;-2.09;79.87;102965.13;5036662;28;20465;-65
2023/02/09 02:02:22;;;;;;;16.80;7.30;;;;;;;-2.11;79.30;102967.09;5036670;28;20526;-65
2023/02/09 02:04:50;;;;;;;20.00;8.83;;;;;;;-2.20;79.41;102958.28;5036403;28;20443;-65
2023/02/09 02:07:22;;;;;;;21.47;8.90;;;;;;;-2.20;79.69;102960.09;5036538;28;20533;-65
2023/02/09 02:09:49;;;;;;;18.10;7.87;;;;;;;-2.19;80.43;102953.78;5036202;28;21021;-65
2023/02/09 02:12:16;;;;;;;22.50;8.50;;;;;;;-2.20;80.83;102952.13;5036499;28;20475;-65
2023/02/09 02:14:44;;;;;;;27.77;7.77;;;;;;;-2.21;80.61;102943.34;5036138;28;20454;-65
2023/02/09 02:17:21;;;;;;;23.67;9.47;;;;;;;-2.25;80.71;102946.47;5036006;28;20529;-65
2023/02/09 02:20:17;;;;;;;25.50;7.67;;;;;;;-2.25;80.83;102943.81;5036306;28;20653;-66
2023/02/09 02:23:03;;;;;;;20.93;7.93;;;;;;;-2.30;79.92;102937.16;5036326;28;20435;-65
2023/02/09 02:26:11;;;;;;;18.57;7.90;;;;;;;-2.29;79.62;102935.31;5035902;28;20929;-67
2023/02/09 02:29:09;;;;;;;20.20;8.40;;;;;;;-2.35;80.28;102939.41;5035902;28;20545;-66
2023/02/09 02:31:58;;;;;;;19.73;8.73;;;;;;;-2.33;80.05;102926.84;5035301;28;20908;-66
2023/02/09 02:34:34;;;;;;;18.80;6.73;;;;;;;-2.33;79.51;102932.16;5036156;28;20511;-69
2023/02/09 02:37:10;;;;;;;19.50;7.90;;;;;;;-2.40;81.05;102923.13;5035994;28;20473;-66
2023/02/09 02:39:42;;;;;;;17.23;7.40;;;;;;;-2.40;81.98;102924.97;5035961;28;20506;-65
2023/02/09 02:45:06;;;;;;;17.80;7.93;;;;;;;-2.41;81.41;102918.84;5036122;28;20498;-66
2023/02/09 02:47:39;;;;;;;17.60;6.90;;;;;;;-2.40;81.61;102907.22;5035524;28;20919;-65
2023/02/09 02:50:11;;;;;;;13.97;6.70;;;;;;;-2.40;81.36;102909.03;5035815;28;20463;-65
2023/02/09 02:52:43;;;;;;;25.50;8.20;;;;;;;-2.42;81.35;102911.88;5035802;28;20436;-66
2023/02/09 02:55:14;;;;;;;18.40;8.67;;;;;;;-2.45;81.43;102906.88;5035749;28;20452;-66
2023/02/09 02:57:45;;;;;;;22.67;9.23;;;;;;;-2.54;81.21;102892.72;5035668;28;20474;-66
2023/02/09 03:00:16;;;;;;;21.67;8.50;;;;;;;-2.49;81.58;102905.50;5035616;28;20494;-65
2023/02/09 03:02:48;;;;;;;22.47;7.97;;;;;;;-2.49;82.82;102900.19;5035391;28;20897;-65
2023/02/09 03:05:17;;;;;;;19.17;8.77;;;;;;;-2.46;82.36;102899.91;5035629;28;20459;-68
2023/02/09 03:07:44;;;;;;;23.60;8.47;;;;;;;-2.39;81.42;102900.09;5035483;28;20876;-65
2023/02/09 03:10:26;;;;;;;16.87;8.10;;;;;;;-2.47;81.71;102900.91;5035208;28;20474;-67
2023/02/09 03:13:06;;;;;;;15.90;6.13;;;;;;;-2.46;81.29;102901.72;5035124;28;20463;-66
2023/02/09 03:15:41;;;;;;;16.83;6.63;;;;;;;-2.43;80.43;102896.13;5035306;28;20443;-65
2023/02/09 03:18:19;;;;;;;27.07;7.90;;;;;;;-2.43;80.85;102883.69;5034854;28;20463;-65
2023/02/09 03:20:52;;;;;;;23.30;8.30;;;;;;;-2.47;80.51;102887.63;5035289;28;20427;-67
2023/02/09 03:23:31;;;;;;;20.37;8.20;;;;;;;-2.55;80.08;102890.22;5035219;28;20437;-65
2023/02/09 03:26:02;;;;;;;13.50;6.27;;;;;;;-2.57;80.19;102889.53;5035380;28;20459;-66
2023/02/09 03:28:32;;;;;;;22.33;7.17;;;;;;;-2.54;80.98;102891.88;5035270;28;20463;-66
2023/02/09 03:33:42;;;;;;;33.93;8.50;;;;;;;-2.57;81.83;102879.78;4993756;28;20960;-66
2023/02/09 03:36:15;;;;;;;26.33;7.90;;;;;;;-2.59;82.97;102880.91;4993267;28;20524;-65
2023/02/09 03:38:42;;;;;;;19.97;8.37;;;;;;;-2.56;82.65;102872.66;4993058;28;20579;-66
2023/02/09 03:41:08;;;;;;;15.07;7.20;;;;;;;-2.56;82.81;102870.00;4993159;28;20448;-65
2023/02/09 03:46:19;;;;;;;16.33;6.60;;;;;;;-2.53;82.93;102867.03;4993166;28;20433;-66
2023/02/09 03:48:48;;;;;;;19.03;7.80;;;;;;;-2.46;83.00;102862.75;4992893;28;20468;-66
2023/02/09 03:51:15;;;;;;;22.13;8.70;;;;;;;-2.48;83.10;102864.72;4993001;28;20449;-65
2023/02/09 03:53:42;;;;;;;19.27;8.07;;;;;;;-2.41;83.11;102856.97;4992890;28;20825;-66
2023/02/09 03:56:09;;;;;;;12.73;6.90;;;;;;;-2.49;83.33;102862.25;4992928;28;20455;-65
2023/02/09 03:58:35;;;;;;;23.73;8.80;;;;;;;-2.48;83.11;102864.72;4992634;28;21045;-67
2023/02/09 04:01:04;;;;;;;16.77;8.10;;;;;;;-2.46;83.13;102867.22;4992799;28;20964;-66
2023/02/09 04:03:31;;;;;;;19.87;7.00;;;;;;;-2.47;82.18;102853.13;4996127;28;20444;-67
2023/02/09 04:05:59;;;;;;;21.53;7.37;;;;;;;-2.41;82.28;102859.63;5034046;28;20439;-67
2023/02/09 04:08:28;;;;;;;16.80;7.10;;;;;;;-2.41;81.58;102855.16;5033837;28;20517;-67
2023/02/09 04:10:55;;;;;;;19.03;7.23;;;;;;;-2.46;80.73;102857.44;5034194;28;20869;-67
2023/02/09 04:13:21;;;;;;;21.93;7.37;;;;;;;-2.42;80.04;102848.19;5034219;28;20475;-66
2023/02/09 04:15:48;;;;;;;22.17;7.00;;;;;;;-2.49;80.30;102848.97;5034166;28;20862;-65
2023/02/09 04:18:15;;;;;;;19.17;6.87;;;;;;;-2.54;79.84;102844.97;5033696;28;20491;-67
2023/02/09 04:20:41;;;;;;;23.90;7.83;;;;;;;-2.49;80.56;102848.97;5034089;28;20443;-66
2023/02/09 04:23:09;;;;;;;18.07;7.73;;;;;;;-2.53;81.70;102845.78;5034115;28;20549;-65
2023/02/09 04:25:36;;;;;;;20.30;7.47;;;;;;;-2.57;82.27;102845.31;5034004;28;20818;-68
2023/02/09 04:28:03;;;;;;;14.00;6.17;;;;;;;-2.50;81.23;102856.09;5033585;28;20474;-66
2023/02/09 04:30:30;;;;;;;22.33;7.87;;;;;;;-2.53;80.86;102846.63;5033889;28;20443;-68
2023/02/09 04:32:56;;;;;;;18.50;7.10;;;;;;;-2.49;80.14;102841.00;5033902;28;20478;-66
2023/02/09 04:35:23;;;;;;;20.03;7.83;;;;;;;-2.43;80.43;102840.41;5033845;28;20530;-67
2023/02/09 04:37:49;;;;;;;19.40;6.90;;;;;;;-2.40;81.12;102843.53;5033718;28;20497;-66
2023/02/09 04:40:17;;;;;;;14.83;6.30;;;;;;;-2.39;80.99;102839.06;5033349;28;20991;-66
2023/02/09 04:42:45;;;;;;;13.80;6.37;;;;;;;-2.35;81.04;102843.06;5033417;28;20967;-67
2023/02/09 04:45:11;;;;;;;25.90;7.50;;;;;;;-2.39;81.25;102844.38;5033639;28;20437;-66
2023/02/09 04:47:38;;;;;;;17.87;8.10;;;;;;;-2.41;80.15;102833.91;5033821;28;20445;-66
2023/02/09 04:50:05;;;;;;;16.63;6.80;;;;;;;-2.43;80.69;102835.91;5033234;28;21000;-66
2023/02/09 04:52:32;;;;;;;13.00;6.20;;;;;;;-2.40;80.71;102830.28;5033594;28;20868;-67
2023/02/09 04:54:59;;;;;;;19.50;6.87;;;;;;;-2.34;80.57;102829.66;5033435;28;20447;-66
2023/02/09 05:00:14;;;;;;;20.20;7.00;;;;;;;-2.37;81.12;102829.13;5016118;28;20458;-66
2023/02/09 05:02:40;;;;;;;17.17;6.57;;;;;;;-2.35;80.70;102827.97;5033386;28;20550;-66
2023/02/09 05:05:07;;;;;;;13.30;6.07;;;;;;;-2.38;81.03;102828.31;5032849;28;20447;-66
2023/02/09 05:07:34;;;;;;;21.27;7.93;;;;;;;-2.31;81.66;102826.66;5033018;28;21047;-67
2023/02/09 05:10:00;;;;;;;17.53;6.30;;;;;;;-2.33;80.49;102820.69;5032660;28;21054;-67
2023/02/09 05:12:28;;;;;;;18.67;7.37;;;;;;;-2.32;80.54;102832.97;5033205;28;20523;-69
2023/02/09 05:14:55;;;;;;;26.20;8.03;;;;;;;-2.34;80.06;102829.66;5033429;28;20447;-67
2023/02/09 05:17:21;;;;;;;14.57;6.60;;;;;;;-2.37;80.58;102832.63;5033178;28;20521;-67
2023/02/09 05:19:48;;;;;;;15.17;6.43;;;;;;;-2.35;80.04;102833.28;5033078;28;20497;-65
2023/02/09 05:22:15;;;;;;;17.23;7.10;;;;;;;-2.38;80.48;102836.25;5033209;28;20450;-68
2023/02/09 05:24:42;;;;;;;13.40;5.30;;;;;;;-2.38;79.57;102832.78;5032905;28;20456;-69
2023/02/09 05:27:08;;;;;;;24.03;7.87;;;;;;;-2.43;80.21;102829.78;5033134;28;20447;-67
2023/02/09 05:29:36;;;;;;;18.80;7.03;;;;;;;-2.52;80.18;102828.91;5033021;28;20634;-68
2023/02/09 05:32:03;;;;;;;21.40;7.30;;;;;;;-2.53;81.00;102819.25;5032815;28;20983;-67
2023/02/09 05:34:30;;;;;;;18.53;7.00;;;;;;;-2.51;80.56;102832.38;5033007;28;20449;-68
2023/02/09 05:36:56;;;;;;;16.67;6.50;;;;;;;-2.56;81.00;102823.09;5033011;28;20881;-64
2023/02/09 05:39:23;;;;;;;25.63;7.10;;;;;;;-2.58;80.26;102824.22;5032551;28;20590;-65
2023/02/09 05:44:33;;;;;;;16.97;6.63;;;;;;;-2.63;80.75;102826.53;5032749;28;20415;-68
2023/02/09 05:47:01;;;;;;;19.80;7.30;;;;;;;-2.62;81.00;102815.75;5032614;28;20446;-67
2023/02/09 05:49:28;;;;;;;19.07;7.53;;;;;;;-2.64;81.60;102811.59;5032953;28;20467;-64
2023/02/09 05:51:55;;;;;;;20.67;6.90;;;;;;;-2.67;81.34;102799.47;5032873;28;20450;-65
2023/02/09 05:54:21;;;;;;;24.33;8.83;;;;;;;-2.63;81.52;102816.75;5032822;28;20436;-65
2023/02/09 05:56:48;;;;;;;13.50;6.83;;;;;;;-2.68;80.78;102810.25;5032857;28;20457;-66
2023/02/09 05:59:14;;;;;;;21.23;7.47;;;;;;;-2.73;80.70;102808.06;5032658;28;20495;-66
2023/02/09 06:01:41;;;;;;;20.73;7.70;;;;;;;-2.77;80.70;102813.84;5032726;28;20445;-66
2023/02/09 06:04:09;;;;;;;19.80;7.93;;;;;;;-2.75;80.71;102815.34;5032717;28;20488;-65
2023/02/09 06:06:36;;;;;;;22.37;7.57;;;;;;;-2.76;81.47;102818.16;5032418;28;20439;-66
2023/02/09 06:09:04;;;;;;;16.97;7.17;;;;;;;-2.76;82.41;102820.81;5032834;28;20467;-65
2023/02/09 06:11:30;;;;;;;16.67;7.23;;;;;;;-2.77;82.41;102819.16;5033072;28;20446;-67
2023/02/09 06:13:57;;;;;;;23.80;6.90;;;;;;;-2.75;81.59;102825.13;5032744;28;20471;-67
2023/02/09 06:16:24;;;;;;;19.57;7.77;;;;;;;-2.75;81.32;102828.59;5034560;28;20522;-64
2023/02/09 06:18:50;;;;;;;20.80;9.10;;;;;;;-2.77;81.54;102827.94;5036556;28;20483;-66
2023/02/09 06:21:18;;;;;;;17.23;6.70;;;;;;;-2.76;81.44;102823.47;5036272;28;20928;-66
2023/02/09 06:23:45;;;;;;;16.87;6.33;;;;;;;-2.76;80.75;102820.81;5036302;28;20560;-65
2023/02/09 06:26:13;;;;;;;19.07;7.70;;;;;;;-2.77;81.03;102822.63;5036109;28;21025;-69
2023/02/09 06:28:40;;;;;;;19.23;6.77;;;;;;;-2.77;80.74;102824.47;5035929;28;20672;-68
2023/02/09 06:31:07;;;;;;;16.67;7.40;;;;;;;-2.84;81.27;102821.59;5036232;28;20481;-66
2023/02/09 06:33:34;;;;;;;18.00;6.93;;;;;;;-2.86;81.25;102828.88;5035851;28;20443;-68
2023/02/09 06:36:01;;;;;;;16.23;7.33;;;;;;;-2.80;81.97;102823.78;5036239;28;20427;-67
2023/02/09 06:38:31;;;;;;;19.77;7.23;;;;;;;-2.78;81.61;102825.47;5035931;28;20565;-68
2023/02/09 06:40:58;;;;;;;17.73;7.20;;;;;;;-2.75;81.35;102831.25;5036082;28;20826;-65
2023/02/09 06:43:24;;;;;;;23.43;8.17;;;;;;;-2.75;80.37;102820.66;5035950;28;20451;-66
2023/02/09 06:45:51;;;;;;;22.60;9.30;;;;;;;-2.74;79.72;102821.50;5035646;28;20518;-67
2023/02/09 06:48:18;;;;;;;30.10;9.40;;;;;;;-2.78;81.22;102820.16;5035435;28;20545;-66
2023/02/09 06:50:45;;;;;;;23.63;8.63;;;;;;;-2.75;81.33;102820.66;5035782;28;20451;-66
2023/02/09 06:53:11;;;;;;;17.40;7.40;;;;;;;-2.67;80.62;102818.03;5035639;28;20443;-66
2023/02/09 06:55:39;;;;;;;23.43;7.50;;;;;;;-2.72;79.70;102823.00;5035251;28;20836;-66
2023/02/09 06:58:06;;;;;;;14.90;6.53;;;;;;;-2.72;79.91;102820.34;5035310;28;20519;-66
2023/02/09 07:00:33;;;;;;;26.37;8.30;;;;;;;-2.64;79.94;102824.88;5035117;28;20518;-66
2023/02/09 07:02:59;;;;;;;14.80;7.90;;;;;;;-2.62;80.01;102825.53;5035358;28;20526;-65
2023/02/09 07:05:26;;;;;;;18.83;8.50;;;;;;;-2.68;79.58;102832.31;5035242;28;20447;-68
2023/02/09 07:07:53;;;;;;;22.67;8.90;;;;;;;-2.62;79.73;102844.09;5035382;28;20482;-69
2023/02/09 07:10:20;;;;;;;20.67;8.27;;;;;;;-2.60;79.88;102842.13;5035021;28;20510;-67
2023/02/09 07:12:48;;;;;;;16.20;6.93;;;;;;;-2.57;78.93;102831.19;5035161;28;20454;-66
2023/02/09 07:15:15;;;;;;;21.10;8.00;;;;;;;-2.61;79.81;102832.50;5035150;28;20447;-67
2023/02/09 07:17:42;;;;;;;20.83;6.83;;;;;;;-2.57;80.26;102828.53;5035015;28;20442;-67
2023/02/09 07:20:10;;;;;;;20.30;7.77;;;;;;;-2.42;78.97;102831.44;5035126;28;20467;-66
2023/02/09 07:22:36;;;;;;;19.43;7.07;;;;;;;-2.40;79.25;102826.78;5036138;28;20435;-66
2023/02/09 07:25:03;;;;;;;14.80;6.47;;;;;;;-2.37;79.79;102827.31;5035000;28;20454;-68
2023/02/09 07:27:30;;;;;;;17.90;8.40;;;;;;;-2.33;77.57;102820.69;5034445;28;20445;-67
2023/02/09 07:29:58;;;;;;;20.63;7.87;;;;;;;-2.30;77.17;102820.38;5033909;28;20464;-69
2023/02/09 07:32:26;;;;;;;25.03;8.37;;;;;;;-2.31;77.53;102826.66;5034970;28;20471;-66
2023/02/09 07:34:53;;;;;;;20.37;6.97;;;;;;;-2.25;77.66;102821.72;5035048;28;20504;-66
2023/02/09 07:37:19;;;;;;;17.77;6.90;;;;;;;-2.21;77.83;102820.38;5034636;28;20478;-68
2023/02/09 07:39:46;;;;;;;24.97;7.30;;;;;;;-2.19;76.42;102826.38;5034686;28;20565;-65
2023/02/09 07:42:12;;;;;;;27.33;7.57;;;;;;;-2.20;76.02;102824.72;5034826;28;20445;-66
2023/02/09 07:44:39;;;;;;;16.83;7.10;;;;;;;-2.12;76.85;102822.94;5034498;28;20983;-67
2023/02/09 07:47:07;;;;;;;30.00;8.93;;;;;;;-2.07;76.11;102825.94;5034735;28;20823;-68
2023/02/09 07:49:34;;;;;;;16.43;6.57;;;;;;;-2.03;76.28;102827.25;5034527;28;20505;-67
2023/02/09 07:52:01;;;;;;;19.00;6.97;;;;;;;-1.99;75.38;102825.13;5034445;28;20486;-67
2023/02/09 07:54:27;;;;;;;17.47;6.70;;;;;;;-1.94;76.05;102830.78;5034730;28;20447;-73
2023/02/09 07:56:54;;;;;;;17.57;6.50;;;;;;;-1.89;75.95;102828.47;5034207;28;20816;-69
2023/02/09 07:59:21;;;;;;;20.40;6.87;;;;;;;-1.92;75.45;102820.81;5034426;28;20493;-70
2023/02/09 08:01:48;;;;;;;27.53;8.60;;;;;;;-1.86;75.41;102817.53;5034474;28;20539;-69
2023/02/09 08:04:16;;;;;;;18.20;6.60;;;;;;;-1.78;75.31;102816.69;5034846;28;20443;-68
2023/02/09 08:06:44;;;;;;;14.53;6.40;;;;;;;-1.71;74.63;102808.91;5034044;28;20849;-68
2023/02/09 08:09:15;;;;;;;18.80;7.00;;;;;;;-1.66;73.12;102818.03;5034048;28;20668;-68
2023/02/09 08:11:45;;;;;;;16.90;6.17;;;;;;;-1.57;73.89;102810.91;5034038;28;20929;-68
2023/02/09 08:14:14;;;;;;;25.30;7.70;;;;;;;-1.48;73.61;102811.72;5034262;28;20439;-69
2023/02/09 08:16:41;;;;;;;20.17;8.10;;;;;;;-1.44;72.70;102802.44;5033836;28;20989;-68
2023/02/09 08:19:13;;;;;;;17.67;7.10;;;;;;;-1.37;72.26;102808.75;5033779;28;21058;-70
2023/02/09 08:21:45;;;;;;;18.27;7.00;;;;;;;-1.30;72.53;102818.53;5034442;28;20591;-69
2023/02/09 08:24:13;;;;;;;19.03;7.43;;;;;;;-1.16;71.03;102808.22;5033838;28;20438;-68
2023/02/09 08:26:41;;;;;;;15.40;5.97;;;;;;;-1.13;71.38;102803.41;5033758;28;20450;-68
2023/02/09 08:29:08;;;;;;;17.90;6.47;;;;;;;-1.02;69.76;102805.72;5034205;28;20459;-69
2023/02/09 08:31:35;;;;;;;18.33;6.83;;;;;;;-0.95;69.74;102810.34;5034401;28;20489;-66
2023/02/09 08:34:02;;;;;;;19.83;7.77;;;;;;;-0.90;68.49;102819.47;5034262;28;20454;-67
2023/02/09 08:36:30;;;;;;;22.47;7.13;;;;;;;-0.83;67.68;102812.50;5033885;28;20958;-66
2023/02/09 08:38:58;;;;;;;17.60;6.43;;;;;;;-0.77;68.55;102813.63;5033096;28;20498;-67
2023/02/09 08:41:25;;;;;;;17.50;6.43;;;;;;;-0.66;68.63;102815.13;5033648;28;20447;-65
2023/02/09 08:43:52;;;;;;;24.67;8.40;;;;;;;-0.60;66.97;102820.56;5033717;28;20443;-65
2023/02/09 08:46:19;;;;;;;14.87;6.97;;;;;;;-0.57;66.16;102822.91;5033654;28;20471;-67
2023/02/09 08:48:46;;;;;;;19.67;6.80;;;;;;;-0.55;66.57;102812.91;5033641;28;20467;-67
2023/02/09 08:51:14;;;;;;;15.27;6.80;;;;;;;-0.49;67.12;102815.88;5033688;28;20443;-66
2023/02/09 08:53:42;;;;;;;18.23;7.13;;;;;;;-0.36;65.80;102814.31;5033538;28;20440;-69
2023/02/09 08:56:10;;;;;;;16.23;6.93;;;;;;;-0.27;65.09;102805.31;5033544;28;20470;-69
2023/02/09 08:58:36;;;;;;;18.93;8.13;;;;;;;-0.21;63.98;102795.78;5033000;28;20996;-67
2023/02/09 09:01:04;;;;;;;18.20;5.70;;;;;;;-0.16;63.98;102800.59;5033402;28;20497;-66
2023/02/09 09:03:31;;;;;;;16.13;6.80;;;;;;;-0.05;64.30;102800.19;5033474;28;20443;-66
2023/02/09 09:05:59;;;;;;;17.77;6.47;;;;;;;-0.01;63.21;102801.50;5033450;28;20816;-66
2023/02/09 09:08:26;;;;;;;16.60;6.90;;;;;;;0.04;62.91;102792.97;5033168;28;20557;-66
2023/02/09 09:10:53;;;;;;;17.77;7.10;;;;;;;0.15;63.68;102798.72;5033165;28;20449;-65
2023/02/09 09:13:23;;;;;;;19.87;6.83;;;;;;;0.21;62.81;102798.00;5033425;28;20439;-65
2023/02/09 09:15:51;;;;;;;17.33;6.43;;;;;;;0.25;61.68;102786.00;5033689;28;20453;-66
2023/02/09 09:18:18;;;;;;;20.50;6.60;;;;;;;0.32;60.98;102793.28;5033180;28;22094;-63
2023/02/09 09:20:44;;;;;;;16.10;7.33;;;;;;;0.43;60.90;102799.00;5033249;28;20435;-66
2023/02/09 09:23:11;;;;;;;15.53;6.77;;;;;;;0.50;61.12;102799.16;5033152;28;20451;-65
2023/02/09 09:25:38;;;;;;;21.50;7.40;;;;;;;0.61;61.90;102801.38;5033096;28;20443;-65
2023/02/09 09:28:05;;;;;;;20.00;7.30;;;;;;;0.68;62.01;102801.50;5032829;28;20529;-65
2023/02/09 09:30:33;;;;;;;18.73;7.17;;;;;;;0.71;60.67;102793.97;5033088;28;20522;-65
2023/02/09 09:33:00;;;;;;;14.87;6.20;;;;;;;0.79;60.06;102792.22;5033158;28;20446;-65
2023/02/09 09:35:27;;;;;;;18.10;5.73;;;;;;;0.83;60.00;102790.84;5033287;28;20435;-66
2023/02/09 09:37:57;;;;;;;19.07;6.57;;;;;;;0.91;59.61;102777.44;5033023;28;20446;-65
2023/02/09 09:40:27;;;;;;;14.17;5.57;;;;;;;1.01;60.80;102772.66;5033001;28;20483;-66
2023/02/09 09:42:56;;;;;;;14.30;5.40;;;;;;;1.02;58.99;102771.66;5033590;28;20518;-64
2023/02/09 09:45:26;;;;;;;18.10;6.50;;;;;;;1.10;59.05;102762.72;5032637;28;20449;-66
2023/02/09 09:47:55;;;;;;;15.93;6.30;;;;;;;1.08;59.39;102762.91;5032928;28;20438;-66
2023/02/09 09:50:24;;;;;;;15.40;6.40;;;;;;;1.09;58.67;102747.72;5033194;28;20466;-66
2023/02/09 09:52:54;;;;;;;19.27;6.70;;;;;;;1.16;58.41;102740.66;5036964;28;20449;-64
2023/02/09 09:55:24;;;;;;;18.50;6.17;;;;;;;1.20;59.58;102742.75;5036902;28;20439;-64
2023/02/09 09:57:53;;;;;;;15.77;6.13;;;;;;;1.17;59.02;102751.13;5036833;28;20470;-64
2023/02/09 10:00:23;;;;;;;20.80;7.33;;;;;;;1.23;57.69;102755.72;5036567;28;20999;-65
2023/02/09 10:02:49;;;;;;;17.00;6.40;;;;;;;1.32;57.79;102763.63;5036671;28;20445;-64
2023/02/09 10:05:20;;;;;;;17.47;6.47;;;;;;;1.35;56.67;102755.25;5036648;28;20880;-66
2023/02/09 10:07:55;;;;;;;17.20;6.73;;;;;;;1.36;58.48;102754.22;5036377;28;20934;-65
2023/02/09 10:10:32;;;;;;;22.43;7.20;;;;;;;1.44;58.20;102756.81;5036367;28;20838;-65
2023/02/09 10:13:03;;;;;;;17.97;6.93;;;;;;;1.54;58.26;102762.69;5036557;28;20423;-64
2023/02/09 10:15:31;;;;;;;16.40;6.70;;;;;;;1.62;57.72;102761.75;5036534;28;20427;-66
2023/02/09 10:17:59;;;;;;;11.67;5.50;;;;;;;1.69;57.56;102746.63;5036095;28;20820;-65
2023/02/09 10:20:48;;;;;;;14.60;5.67;;;;;;;1.66;55.92;102742.50;5036060;28;20486;-65
2023/02/09 10:23:17;;;;;;;17.53;5.50;;;;;;;1.70;56.25;102741.09;5036363;28;20431;-65
2023/02/09 10:25:57;;;;;;;17.50;6.27;;;;;;;1.70;57.04;102735.75;5036260;28;20442;-65
2023/02/09 10:28:26;;;;;;;15.00;5.40;;;;;;;1.84;56.56;102730.56;5036353;28;20477;-64
2023/02/09 10:30:55;;;;;;;13.47;5.03;;;;;;;1.98;55.69;102727.00;5036264;28;20527;-65
2023/02/09 10:33:22;;;;;;;16.47;6.17;;;;;;;2.07;54.80;102725.84;5036242;28;20481;-65
2023/02/09 10:35:52;;;;;;;12.10;5.03;;;;;;;2.06;55.24;102724.19;5036140;28;20443;-65
2023/02/09 10:38:21;;;;;;;18.67;6.20;;;;;;;2.10;55.05;102713.97;5035992;28;20465;-65
2023/02/09 10:40:49;;;;;;;16.77;6.47;;;;;;;2.17;56.09;102710.34;5035775;28;20574;-65
2023/02/09 10:43:22;;;;;;;19.60;6.07;;;;;;;2.30;56.39;102703.41;5035429;28;20493;-65
2023/02/09 10:45:53;;;;;;;17.57;5.50;;;;;;;2.33;56.27;102700.38;5035214;28;20514;-65
2023/02/09 10:48:22;;;;;;;15.80;5.73;;;;;;;2.37;56.26;102698.97;5035430;28;20463;-65
2023/02/09 10:50:52;;;;;;;15.37;5.30;;;;;;;2.39;56.50;102702.25;5035409;28;20471;-65
2023/02/09 10:53:23;;;;;;;15.00;5.00;;;;;;;2.50;55.76;102693.72;5035474;28;20431;-65
2023/02/09 10:55:50;;;;;;;23.13;7.07;;;;;;;2.63;55.73;102693.81;5035360;28;20428;-65
2023/02/09 10:58:24;;;;;;;14.90;5.40;;;;;;;2.67;55.63;102695.06;5035228;28;20540;-64
2023/02/09 11:00:55;;;;;;;13.90;5.30;;;;;;;2.82;53.33;102691.44;5035181;28;20562;-65
2023/02/09 11:03:25;;;;;;;15.07;5.13;;;;;;;2.89;53.21;102689.66;5034331;28;20438;-65
2023/02/09 11:06:00;;;;;;;11.53;4.20;;;;;;;2.98;53.25;102691.13;5035130;28;20460;-65
2023/02/09 11:08:40;;;;;;;14.47;4.77;;;;;;;3.01;51.80;102688.03;5034868;28;20475;-66
2023/02/09 11:11:09;;;;;;;16.33;4.83;;;;;;;3.14;52.21;102685.44;5035069;28;20424;-65
2023/02/09 11:13:36;;;;;;;12.27;4.77;;;;;;;3.22;51.14;102682.56;5034736;28;20507;-65
2023/02/09 11:16:24;;;;;;;17.57;4.80;;;;;;;3.20;50.54;102690.00;5034610;28;20463;-66
2023/02/09 11:18:57;;;;;;;19.73;4.63;;;;;;;3.20;51.60;102689.19;5034652;28;20964;-65
2023/02/09 11:21:35;;;;;;;10.53;4.00;;;;;;;3.32;50.67;102682.22;5034645;28;20460;-65
2023/02/09 11:24:12;;;;;;;15.90;5.60;;;;;;;3.36;51.31;102680.78;5034631;28;20428;-66
2023/02/09 11:26:46;;;;;;;13.60;5.10;;;;;;;3.62;50.87;102688.06;5034521;28;20514;-65
2023/02/09 11:29:24;;;;;;;12.47;5.10;;;;;;;3.74;50.71;102682.94;5034621;28;20465;-65
2023/02/09 11:32:02;;;;;;;12.80;4.30;;;;;;;3.95;50.09;102677.41;5035239;28;20419;-66
2023/02/09 11:35:01;;;;;;;17.27;4.80;;;;;;;4.54;48.61;102678.44;5035097;28;20431;-67
2023/02/09 11:37:35;;;;;;;17.10;4.00;;;;;;;5.36;47.54;102670.72;5034981;28;20432;-66
2023/02/09 11:40:15;;;;;;;13.63;4.73;;;;;;;5.80;46.07;102667.16;5034859;28;20544;-66
2023/02/09 11:42:48;;;;;;;13.20;5.33;;;;;;;5.95;45.21;102673.09;5034950;28;20466;-66